EmailTwitter


Observations de surface / Québec / CYMX

Régions: Québec | Canada | États-Unis | Europe | France | UK | Elsewhere
Station
Affichage
Infos & localisation pour CYMX | Aide pour décoder les METARs

Observations prises le 2017-04-29 à 19H00 UTC à MONTREAL MIRABEL, QB (CYMX)

Etat du ciel: ciel variable.

Température: 18.0 Celsius

Point de rosée: 1.0 Celsius

Humidité relative: 32%

Vents: Ouest à 28 km/h ou 15 noeuds.

Rafale du vent: 48 km/h ou 26 noeuds.

Pression au niveau moyen de la mer: 101.24 kilopascals.

Calage altimétrique: 101.22 kilopascals ou 29.89 pouces de mercure.

Visibilité horizontale: 45.00 milles terrestres ou 72.00 kilomètres.

Observation METAR:

CYMX 291900Z 26015G26KT 45SM FEW050 SCT250 18/01 A2989 RMK CU1CI2 SLP124

DENSITY ALT 600FT=